sensor_id;sensor_type;location;lat;lon;timestamp;pressure;altitude;pressure_sealevel;temperature
18161;BMP280;9205;52.032;4.314;2022-12-07T00:01:41;101898.97;;;7.77
18161;BMP280;9205;52.032;4.314;2022-12-07T00:04:14;101892.19;;;7.73
18161;BMP280;9205;52.032;4.314;2022-12-07T00:06:45;101897.25;;;7.73
18161;BMP280;9205;52.032;4.314;2022-12-07T00:09:15;101899.72;;;7.69
18161;BMP280;9205;52.032;4.314;2022-12-07T00:11:44;101897.16;;;7.64
18161;BMP280;9205;52.032;4.314;2022-12-07T00:14:15;101893.78;;;7.61
18161;BMP280;9205;52.032;4.314;2022-12-07T00:16:43;101893.75;;;7.56
18161;BMP280;9205;52.032;4.314;2022-12-07T00:19:13;101903.84;;;7.53
18161;BMP280;9205;52.032;4.314;2022-12-07T00:21:41;101901.28;;;7.49
18161;BMP280;9205;52.032;4.314;2022-12-07T00:24:11;101902.94;;;7.47
18161;BMP280;9205;52.032;4.314;2022-12-07T00:26:40;101901.25;;;7.44
18161;BMP280;9205;52.032;4.314;2022-12-07T00:29:16;101899.50;;;7.39
18161;BMP280;9205;52.032;4.314;2022-12-07T00:31:44;101893.59;;;7.34
18161;BMP280;9205;52.032;4.314;2022-12-07T00:34:15;101893.53;;;7.29
18161;BMP280;9205;52.032;4.314;2022-12-07T00:36:43;101890.13;;;7.24
18161;BMP280;9205;52.032;4.314;2022-12-07T00:39:10;101890.06;;;7.18
18161;BMP280;9205;52.032;4.314;2022-12-07T00:41:38;101890.84;;;7.11
18161;BMP280;9205;52.032;4.314;2022-12-07T00:44:05;101888.28;;;7.05
18161;BMP280;9205;52.032;4.314;2022-12-07T00:46:34;101891.63;;;7.06
18161;BMP280;9205;52.032;4.314;2022-12-07T00:49:02;101891.59;;;7.01
18161;BMP280;9205;52.032;4.314;2022-12-07T00:51:29;101890.72;;;6.98
18161;BMP280;9205;52.032;4.314;2022-12-07T00:53:57;101888.19;;;6.94
18161;BMP280;9205;52.032;4.314;2022-12-07T00:56:29;101879.72;;;6.92
18161;BMP280;9205;52.032;4.314;2022-12-07T00:58:58;101880.56;;;6.92
18161;BMP280;9205;52.032;4.314;2022-12-07T01:01:28;101887.25;;;6.86
18161;BMP280;9205;52.032;4.314;2022-12-07T01:03:58;101890.56;;;6.80
18161;BMP280;9205;52.032;4.314;2022-12-07T01:06:27;101891.44;;;6.84
18161;BMP280;9205;52.032;4.314;2022-12-07T01:08:56;101893.97;;;6.85
18161;BMP280;9205;52.032;4.314;2022-12-07T01:11:26;101894.84;;;6.87
18161;BMP280;9205;52.032;4.314;2022-12-07T01:13:56;101893.19;;;6.91
18161;BMP280;9205;52.032;4.314;2022-12-07T01:16:26;101887.31;;;6.93
18161;BMP280;9205;52.032;4.314;2022-12-07T01:18:58;101881.38;;;6.90
18161;BMP280;9205;52.032;4.314;2022-12-07T01:21:29;101886.41;;;6.87
18161;BMP280;9205;52.032;4.314;2022-12-07T01:24:00;101878.84;;;6.90
18161;BMP280;9205;52.032;4.314;2022-12-07T01:26:28;101882.25;;;6.93
18161;BMP280;9205;52.032;4.314;2022-12-07T01:28:55;101882.25;;;6.95
18161;BMP280;9205;52.032;4.314;2022-12-07T01:31:27;101900.81;;;6.97
18161;BMP280;9205;52.032;4.314;2022-12-07T01:33:58;101889.84;;;6.95
18161;BMP280;9205;52.032;4.314;2022-12-07T01:36:28;101885.66;;;6.94
18161;BMP280;9205;52.032;4.314;2022-12-07T01:38:59;101889.00;;;6.96
18161;BMP280;9205;52.032;4.314;2022-12-07T01:41:30;101879.81;;;7.00
18161;BMP280;9205;52.032;4.314;2022-12-07T01:44:23;101884.91;;;7.05
18161;BMP280;9205;52.032;4.314;2022-12-07T01:46:53;101891.69;;;7.10
18161;BMP280;9205;52.032;4.314;2022-12-07T01:49:29;101892.63;;;7.20
18161;BMP280;9205;52.032;4.314;2022-12-07T01:52:07;101891.81;;;7.24
18161;BMP280;9205;52.032;4.314;2022-12-07T01:54:37;101877.53;;;7.32
18161;BMP280;9205;52.032;4.314;2022-12-07T01:57:08;101874.19;;;7.34
18161;BMP280;9205;52.032;4.314;2022-12-07T01:59:36;101878.47;;;7.38
18161;BMP280;9205;52.032;4.314;2022-12-07T02:02:10;101881.81;;;7.40
18161;BMP280;9205;52.032;4.314;2022-12-07T02:04:40;101863.25;;;7.35
18161;BMP280;9205;52.032;4.314;2022-12-07T02:07:08;101872.50;;;7.30
18161;BMP280;9205;52.032;4.314;2022-12-07T02:09:36;101862.34;;;7.29
18161;BMP280;9205;52.032;4.314;2022-12-07T02:12:04;101868.28;;;7.31
18161;BMP280;9205;52.032;4.314;2022-12-07T02:14:32;101870.75;;;7.26
18161;BMP280;9205;52.032;4.314;2022-12-07T02:17:08;101874.13;;;7.25
18161;BMP280;9205;52.032;4.314;2022-12-07T02:20:27;101859.78;;;7.21
18161;BMP280;9205;52.032;4.314;2022-12-07T02:29:38;101862.13;;;7.03
18161;BMP280;9205;52.032;4.314;2022-12-07T02:32:13;101859.59;;;7.03
18161;BMP280;9205;52.032;4.314;2022-12-07T02:34:48;101866.41;;;7.07
18161;BMP280;9205;52.032;4.314;2022-12-07T02:37:29;101858.78;;;7.06
18161;BMP280;9205;52.032;4.314;2022-12-07T02:40:07;101859.59;;;7.02
18161;BMP280;9205;52.032;4.314;2022-12-07T02:42:40;101858.78;;;7.04
18161;BMP280;9205;52.032;4.314;2022-12-07T02:45:14;101863.88;;;7.07
18161;BMP280;9205;52.032;4.314;2022-12-07T02:47:44;101872.28;;;7.08
18161;BMP280;9205;52.032;4.314;2022-12-07T02:50:13;101874.84;;;7.14
18161;BMP280;9205;52.032;4.314;2022-12-07T02:52:41;101865.66;;;7.19
18161;BMP280;9205;52.032;4.314;2022-12-07T02:55:08;101863.16;;;7.23
18161;BMP280;9205;52.032;4.314;2022-12-07T02:57:56;101859.84;;;7.32
18161;BMP280;9205;52.032;4.314;2022-12-07T03:00:41;101853.09;;;7.32
18161;BMP280;9205;52.032;4.314;2022-12-07T03:03:14;101855.66;;;7.35
18161;BMP280;9205;52.032;4.314;2022-12-07T03:06:11;101859.91;;;7.39
18161;BMP280;9205;52.032;4.314;2022-12-07T03:08:56;101857.41;;;7.39
18161;BMP280;9205;52.032;4.314;2022-12-07T03:11:33;101860.75;;;7.38
18161;BMP280;9205;52.032;4.314;2022-12-07T03:14:13;101853.13;;;7.35
18161;BMP280;9205;52.032;4.314;2022-12-07T03:16:57;101848.94;;;7.36
18161;BMP280;9205;52.032;4.314;2022-12-07T03:19:27;101859.88;;;7.36
18161;BMP280;9205;52.032;4.314;2022-12-07T03:21:59;101848.06;;;7.35
18161;BMP280;9205;52.032;4.314;2022-12-07T03:24:39;101863.25;;;7.35
18161;BMP280;9205;52.032;4.314;2022-12-07T03:27:14;101862.41;;;7.35
18161;BMP280;9205;52.032;4.314;2022-12-07T03:29:49;101857.38;;;7.38
18161;BMP280;9205;52.032;4.314;2022-12-07T03:32:26;101849.81;;;7.42
18161;BMP280;9205;52.032;4.314;2022-12-07T03:35:02;101844.78;;;7.45
18161;BMP280;9205;52.032;4.314;2022-12-07T03:37:36;101833.00;;;7.47
18161;BMP280;9205;52.032;4.314;2022-12-07T03:40:12;101837.25;;;7.53
18161;BMP280;9205;52.032;4.314;2022-12-07T03:42:41;101839.75;;;7.51
18161;BMP280;9205;52.032;4.314;2022-12-07T03:45:09;101835.53;;;7.49
18161;BMP280;9205;52.032;4.314;2022-12-07T03:47:47;101838.03;;;7.44
18161;BMP280;9205;52.032;4.314;2022-12-07T03:50:25;101838.00;;;7.41
18161;BMP280;9205;52.032;4.314;2022-12-07T03:52:58;101836.31;;;7.40
18161;BMP280;9205;52.032;4.314;2022-12-07T03:55:34;101839.69;;;7.39
18161;BMP280;9205;52.032;4.314;2022-12-07T03:58:06;101843.84;;;7.33
18161;BMP280;9205;52.032;4.314;2022-12-07T04:00:35;101828.66;;;7.30
18161;BMP280;9205;52.032;4.314;2022-12-07T04:03:04;101826.13;;;7.28
18161;BMP280;9205;52.032;4.314;2022-12-07T04:05:31;101836.19;;;7.25
18161;BMP280;9205;52.032;4.314;2022-12-07T04:07:59;101841.28;;;7.28
18161;BMP280;9205;52.032;4.314;2022-12-07T04:10:26;101837.06;;;7.24
18161;BMP280;9205;52.032;4.314;2022-12-07T04:12:53;101840.41;;;7.25
18161;BMP280;9205;52.032;4.314;2022-12-07T04:15:21;101838.69;;;7.21
18161;BMP280;9205;52.032;4.314;2022-12-07T04:17:49;101831.09;;;7.21
18161;BMP280;9205;52.032;4.314;2022-12-07T04:20:18;101835.31;;;7.19
18161;BMP280;9205;52.032;4.314;2022-12-07T04:22:46;101830.28;;;7.19
18161;BMP280;9205;52.032;4.314;2022-12-07T04:25:13;101838.66;;;7.13
18161;BMP280;9205;52.032;4.314;2022-12-07T04:27:41;101825.19;;;7.16
18161;BMP280;9205;52.032;4.314;2022-12-07T04:30:09;101826.91;;;7.20
18161;BMP280;9205;52.032;4.314;2022-12-07T04:32:37;101817.63;;;7.20
18161;BMP280;9205;52.032;4.314;2022-12-07T04:35:06;101815.09;;;7.20
18161;BMP280;9205;52.032;4.314;2022-12-07T04:37:35;101821.00;;;7.21
18161;BMP280;9205;52.032;4.314;2022-12-07T04:40:07;101818.50;;;7.22
18161;BMP280;9205;52.032;4.314;2022-12-07T04:42:36;101811.72;;;7.18
18161;BMP280;9205;52.032;4.314;2022-12-07T04:45:06;101803.31;;;7.18
18161;BMP280;9205;52.032;4.314;2022-12-07T04:47:33;101808.34;;;7.19
18161;BMP280;9205;52.032;4.314;2022-12-07T04:50:01;101806.66;;;7.17
18161;BMP280;9205;52.032;4.314;2022-12-07T04:52:28;101814.19;;;7.12
18161;BMP280;9205;52.032;4.314;2022-12-07T04:54:57;101805.78;;;7.12
18161;BMP280;9205;52.032;4.314;2022-12-07T04:57:24;101798.22;;;7.13
18161;BMP280;9205;52.032;4.314;2022-12-07T04:59:52;101799.91;;;7.14
18161;BMP280;9205;52.032;4.314;2022-12-07T05:02:19;101799.91;;;7.16
18161;BMP280;9205;52.032;4.314;2022-12-07T05:04:47;101794.84;;;7.16
18161;BMP280;9205;52.032;4.314;2022-12-07T05:07:14;101800.78;;;7.16
18161;BMP280;9205;52.032;4.314;2022-12-07T05:09:41;101802.44;;;7.17
18161;BMP280;9205;52.032;4.314;2022-12-07T05:12:10;101794.03;;;7.15
18161;BMP280;9205;52.032;4.314;2022-12-07T05:14:38;101795.69;;;7.15
18161;BMP280;9205;52.032;4.314;2022-12-07T05:17:05;101795.69;;;7.15
18161;BMP280;9205;52.032;4.314;2022-12-07T05:19:33;101803.25;;;7.15
18161;BMP280;9205;52.032;4.314;2022-12-07T05:22:00;101794.84;;;7.13
18161;BMP280;9205;52.032;4.314;2022-12-07T05:24:27;101799.03;;;7.12
18161;BMP280;9205;52.032;4.314;2022-12-07T05:26:55;101789.78;;;7.13
18161;BMP280;9205;52.032;4.314;2022-12-07T05:29:24;101801.56;;;7.12
18161;BMP280;9205;52.032;4.314;2022-12-07T05:31:51;101796.53;;;7.15
18161;BMP280;9205;52.032;4.314;2022-12-07T05:34:19;101799.06;;;7.15
18161;BMP280;9205;52.032;4.314;2022-12-07T05:36:46;101800.78;;;7.19
18161;BMP280;9205;52.032;4.314;2022-12-07T05:39:15;101806.69;;;7.20
18161;BMP280;9205;52.032;4.314;2022-12-07T05:41:42;101804.16;;;7.23
18161;BMP280;9205;52.032;4.314;2022-12-07T05:44:28;101805.88;;;7.25
18161;BMP280;9205;52.032;4.314;2022-12-07T05:46:55;101805.03;;;7.26
18161;BMP280;9205;52.032;4.314;2022-12-07T05:49:23;101800.00;;;7.32
18161;BMP280;9205;52.032;4.314;2022-12-07T05:51:50;101801.75;;;7.35
18161;BMP280;9205;52.032;4.314;2022-12-07T05:54:18;101805.97;;;7.40
18161;BMP280;9205;52.032;4.314;2022-12-07T05:56:46;101806.00;;;7.42
18161;BMP280;9205;52.032;4.314;2022-12-07T05:59:13;101809.34;;;7.42
18161;BMP280;9205;52.032;4.314;2022-12-07T06:01:51;101800.94;;;7.42
18161;BMP280;9205;52.032;4.314;2022-12-07T06:04:18;101804.31;;;7.42
18161;BMP280;9205;52.032;4.314;2022-12-07T06:06:47;101800.94;;;7.42
18161;BMP280;9205;52.032;4.314;2022-12-07T06:09:15;101793.34;;;7.45
18161;BMP280;9205;52.032;4.314;2022-12-07T06:11:42;101800.13;;;7.47
18161;BMP280;9205;52.032;4.314;2022-12-07T06:14:27;101796.75;;;7.47
18161;BMP280;9205;52.032;4.314;2022-12-07T06:16:56;101802.66;;;7.47
18161;BMP280;9205;52.032;4.314;2022-12-07T06:19:24;101799.28;;;7.44
18161;BMP280;9205;52.032;4.314;2022-12-07T06:21:51;101800.91;;;7.40
18161;BMP280;9205;52.032;4.314;2022-12-07T06:24:19;101805.97;;;7.37
18161;BMP280;9205;52.032;4.314;2022-12-07T06:26:47;101811.84;;;7.36
18161;BMP280;9205;52.032;4.314;2022-12-07T06:29:17;101806.75;;;7.30
18161;BMP280;9205;52.032;4.314;2022-12-07T06:31:45;101802.53;;;7.29
18161;BMP280;9205;52.032;4.314;2022-12-07T06:34:17;101797.47;;;7.29
18161;BMP280;9205;52.032;4.314;2022-12-07T06:36:46;101804.22;;;7.30
18161;BMP280;9205;52.032;4.314;2022-12-07T06:39:17;101802.53;;;7.29
18161;BMP280;9205;52.032;4.314;2022-12-07T06:41:45;101799.97;;;7.25
18161;BMP280;9205;52.032;4.314;2022-12-07T06:44:12;101796.59;;;7.21
18161;BMP280;9205;52.032;4.314;2022-12-07T06:46:40;101805.81;;;7.19
18161;BMP280;9205;52.032;4.314;2022-12-07T06:49:07;101800.78;;;7.19
18161;BMP280;9205;52.032;4.314;2022-12-07T06:51:36;101800.78;;;7.19
18161;BMP280;9205;52.032;4.314;2022-12-07T06:54:07;101807.56;;;7.23
18161;BMP280;9205;52.032;4.314;2022-12-07T06:56:37;101805.88;;;7.22
18161;BMP280;9205;52.032;4.314;2022-12-07T06:59:06;101799.13;;;7.21
18161;BMP280;9205;52.032;4.314;2022-12-07T07:01:36;101804.16;;;7.21
18161;BMP280;9205;52.032;4.314;2022-12-07T07:04:05;101806.69;;;7.21
18161;BMP280;9205;52.032;4.314;2022-12-07T07:06:33;101795.72;;;7.19
18161;BMP280;9205;52.032;4.314;2022-12-07T07:09:02;101799.94;;;7.20
18161;BMP280;9205;52.032;4.314;2022-12-07T07:11:33;101807.53;;;7.19
18161;BMP280;9205;52.032;4.314;2022-12-07T07:14:01;101813.38;;;7.13
18161;BMP280;9205;52.032;4.314;2022-12-07T07:16:29;101814.19;;;7.12
18161;BMP280;9205;52.032;4.314;2022-12-07T07:18:57;101806.66;;;7.15
18161;BMP280;9205;52.032;4.314;2022-12-07T07:21:25;101815.06;;;7.16
18161;BMP280;9205;52.032;4.314;2022-12-07T07:23:54;101811.75;;;7.20
18161;BMP280;9205;52.032;4.314;2022-12-07T07:26:26;101803.31;;;7.21
18161;BMP280;9205;52.032;4.314;2022-12-07T07:28:54;101810.06;;;7.20
18161;BMP280;9205;52.032;4.314;2022-12-07T07:31:23;101805.06;;;7.28
18161;BMP280;9205;52.032;4.314;2022-12-07T07:33:52;101809.25;;;7.27
18161;BMP280;9205;52.032;4.314;2022-12-07T07:36:20;101807.63;;;7.35
18161;BMP280;9205;52.032;4.314;2022-12-07T07:38:47;101811.84;;;7.38
18161;BMP280;9205;52.032;4.314;2022-12-07T07:41:15;101813.59;;;7.42
18161;BMP280;9205;52.032;4.314;2022-12-07T07:43:43;101808.56;;;7.46
18161;BMP280;9205;52.032;4.314;2022-12-07T07:46:11;101808.56;;;7.49
18161;BMP280;9205;52.032;4.314;2022-12-07T07:48:38;101813.66;;;7.52
18161;BMP280;9205;52.032;4.314;2022-12-07T07:51:07;101810.28;;;7.56
18161;BMP280;9205;52.032;4.314;2022-12-07T07:53:34;101811.16;;;7.55
18161;BMP280;9205;52.032;4.314;2022-12-07T07:56:02;101811.97;;;7.57
18161;BMP280;9205;52.032;4.314;2022-12-07T07:58:31;101808.59;;;7.52
18161;BMP280;9205;52.032;4.314;2022-12-07T08:01:06;101811.94;;;7.51
18161;BMP280;9205;52.032;4.314;2022-12-07T08:03:34;101803.50;;;7.46
18161;BMP280;9205;52.032;4.314;2022-12-07T08:06:02;101816.97;;;7.47
18161;BMP280;9205;52.032;4.314;2022-12-07T08:08:30;101805.19;;;7.49
18161;BMP280;9205;52.032;4.314;2022-12-07T08:10:58;101818.66;;;7.49
18161;BMP280;9205;52.032;4.314;2022-12-07T08:13:27;101816.19;;;7.51
18161;BMP280;9205;52.032;4.314;2022-12-07T08:15:55;101823.72;;;7.49
18161;BMP280;9205;52.032;4.314;2022-12-07T08:18:24;101821.19;;;7.49
18161;BMP280;9205;52.032;4.314;2022-12-07T08:20:52;101825.44;;;7.49
18161;BMP280;9205;52.032;4.314;2022-12-07T08:23:19;101824.56;;;7.48
18161;BMP280;9205;52.032;4.314;2022-12-07T08:25:47;101827.97;;;7.49
18161;BMP280;9205;52.032;4.314;2022-12-07T08:28:15;101823.75;;;7.51
18161;BMP280;9205;52.032;4.314;2022-12-07T08:30:49;101829.66;;;7.51
18161;BMP280;9205;52.032;4.314;2022-12-07T08:33:33;101822.94;;;7.56
18161;BMP280;9205;52.032;4.314;2022-12-07T08:36:01;101822.16;;;7.63
18161;BMP280;9205;52.032;4.314;2022-12-07T08:38:29;101824.69;;;7.66
18161;BMP280;9205;52.032;4.314;2022-12-07T08:40:58;101824.69;;;7.66
18161;BMP280;9205;52.032;4.314;2022-12-07T08:43:26;101826.38;;;7.66
18161;BMP280;9205;52.032;4.314;2022-12-07T08:46:16;101825.56;;;7.68
18161;BMP280;9205;52.032;4.314;2022-12-07T08:48:53;101817.94;;;7.65
18161;BMP280;9205;52.032;4.314;2022-12-07T08:51:23;101816.25;;;7.67
18161;BMP280;9205;52.032;4.314;2022-12-07T08:53:52;101814.56;;;7.66
18161;BMP280;9205;52.032;4.314;2022-12-07T08:56:20;101832.28;;;7.68
18161;BMP280;9205;52.032;4.314;2022-12-07T08:58:48;101821.34;;;7.70
18161;BMP280;9205;52.032;4.314;2022-12-07T09:01:16;101834.00;;;7.72
18161;BMP280;9205;52.032;4.314;2022-12-07T09:03:43;101818.00;;;7.77
18161;BMP280;9205;52.032;4.314;2022-12-07T09:06:12;101824.75;;;7.81
18161;BMP280;9205;52.032;4.314;2022-12-07T09:08:47;101823.97;;;7.86
18161;BMP280;9205;52.032;4.314;2022-12-07T09:11:16;101824.81;;;7.90
18161;BMP280;9205;52.032;4.314;2022-12-07T09:13:44;101818.94;;;7.94
18161;BMP280;9205;52.032;4.314;2022-12-07T09:16:14;101817.25;;;7.96
18161;BMP280;9205;52.032;4.314;2022-12-07T09:18:43;101821.47;;;7.97
18161;BMP280;9205;52.032;4.314;2022-12-07T09:21:14;101823.16;;;7.98
18161;BMP280;9205;52.032;4.314;2022-12-07T09:23:42;101816.41;;;7.95
18161;BMP280;9205;52.032;4.314;2022-12-07T09:26:10;101817.25;;;7.93
18161;BMP280;9205;52.032;4.314;2022-12-07T09:28:37;101814.69;;;7.91
18161;BMP280;9205;52.032;4.314;2022-12-07T09:31:05;101819.78;;;7.93
18161;BMP280;9205;52.032;4.314;2022-12-07T09:33:33;101814.72;;;7.93
18161;BMP280;9205;52.032;4.314;2022-12-07T09:36:00;101807.13;;;7.93
18161;BMP280;9205;52.032;4.314;2022-12-07T09:38:29;101814.75;;;7.99
18161;BMP280;9205;52.032;4.314;2022-12-07T09:40:57;101813.91;;;8.03
18161;BMP280;9205;52.032;4.314;2022-12-07T09:43:25;101814.75;;;8.06
18161;BMP280;9205;52.032;4.314;2022-12-07T09:45:55;101814.78;;;8.11
18161;BMP280;9205;52.032;4.314;2022-12-07T09:48:30;101815.63;;;8.13
18161;BMP280;9205;52.032;4.314;2022-12-07T09:51:00;101813.09;;;8.14
18161;BMP280;9205;52.032;4.314;2022-12-07T09:53:33;101812.28;;;8.15
18161;BMP280;9205;52.032;4.314;2022-12-07T09:56:03;101811.47;;;8.18
18161;BMP280;9205;52.032;4.314;2022-12-07T09:58:33;101807.25;;;8.21
18161;BMP280;9205;52.032;4.314;2022-12-07T10:01:11;101800.53;;;8.31
18161;BMP280;9205;52.032;4.314;2022-12-07T10:03:43;101798.88;;;8.36
18161;BMP280;9205;52.032;4.314;2022-12-07T10:06:13;101809.00;;;8.40
18161;BMP280;9205;52.032;4.314;2022-12-07T10:08:42;101792.97;;;8.47
18161;BMP280;9205;52.032;4.314;2022-12-07T10:11:10;101804.78;;;8.50
18161;BMP280;9205;52.032;4.314;2022-12-07T10:13:42;101794.69;;;8.56
18161;BMP280;9205;52.032;4.314;2022-12-07T10:16:38;101797.22;;;8.60
18161;BMP280;9205;52.032;4.314;2022-12-07T10:19:26;101799.78;;;8.56
18161;BMP280;9205;52.032;4.314;2022-12-07T10:22:15;101798.91;;;8.56
18161;BMP280;9205;52.032;4.314;2022-12-07T10:24:47;101795.53;;;8.57
18161;BMP280;9205;52.032;4.314;2022-12-07T10:27:20;101790.50;;;8.69
18161;BMP280;9205;52.032;4.314;2022-12-07T10:29:50;101781.22;;;8.77
18161;BMP280;9205;52.032;4.314;2022-12-07T10:32:33;101782.91;;;8.84
18161;BMP280;9205;52.032;4.314;2022-12-07T10:35:30;101785.41;;;8.92
18161;BMP280;9205;52.032;4.314;2022-12-07T10:37:59;101782.06;;;8.96
18161;BMP280;9205;52.032;4.314;2022-12-07T10:40:32;101771.91;;;8.99
18161;BMP280;9205;52.032;4.314;2022-12-07T10:43:04;101767.69;;;9.04
18161;BMP280;9205;52.032;4.314;2022-12-07T10:45:34;101767.66;;;9.07
18161;BMP280;9205;52.032;4.314;2022-12-07T10:48:09;101770.22;;;9.10
18161;BMP280;9205;52.032;4.314;2022-12-07T10:51:10;101769.34;;;9.12
18161;BMP280;9205;52.032;4.314;2022-12-07T10:53:54;101765.16;;;9.13
18161;BMP280;9205;52.032;4.314;2022-12-07T10:57:09;101759.22;;;9.17
18161;BMP280;9205;52.032;4.314;2022-12-07T11:00:02;101756.69;;;9.11
18161;BMP280;9205;52.032;4.314;2022-12-07T11:03:10;101761.75;;;9.18
18161;BMP280;9205;52.032;4.314;2022-12-07T11:05:49;101757.53;;;9.23
18161;BMP280;9205;52.032;4.314;2022-12-07T11:08:36;101749.06;;;9.21
18161;BMP280;9205;52.032;4.314;2022-12-07T11:11:13;101748.22;;;9.27
18161;BMP280;9205;52.032;4.314;2022-12-07T11:13:53;101738.06;;;9.31
18161;BMP280;9205;52.032;4.314;2022-12-07T11:16:52;101738.88;;;9.33
18161;BMP280;9205;52.032;4.314;2022-12-07T11:19:42;101742.31;;;9.32
18161;BMP280;9205;52.032;4.314;2022-12-07T11:22:43;101755.81;;;9.28
18161;BMP280;9205;52.032;4.314;2022-12-07T11:25:42;101771.06;;;9.07
18161;BMP280;9205;52.032;4.314;2022-12-07T11:28:54;101763.44;;;8.71
18161;BMP280;9205;52.032;4.314;2022-12-07T11:31:44;101756.69;;;8.53
18161;BMP280;9205;52.032;4.314;2022-12-07T11:37:37;101743.19;;;8.45
18161;BMP280;9205;52.032;4.314;2022-12-07T11:40:18;101740.66;;;8.48
18161;BMP280;9205;52.032;4.314;2022-12-07T11:42:57;101738.13;;;8.48
18161;BMP280;9205;52.032;4.314;2022-12-07T11:45:31;101723.75;;;8.50
18161;BMP280;9205;52.032;4.314;2022-12-07T11:48:03;101720.38;;;8.51
18161;BMP280;9205;52.032;4.314;2022-12-07T11:50:56;101717.00;;;8.57
18161;BMP280;9205;52.032;4.314;2022-12-07T11:53:40;101717.84;;;8.83
18161;BMP280;9205;52.032;4.314;2022-12-07T11:56:39;101709.38;;;9.02
18161;BMP280;9205;52.032;4.314;2022-12-07T11:59:17;101707.69;;;9.09
18161;BMP280;9205;52.032;4.314;2022-12-07T12:01:56;101706.00;;;9.09
18161;BMP280;9205;52.032;4.314;2022-12-07T12:04:34;101702.63;;;9.12
18161;BMP280;9205;52.032;4.314;2022-12-07T12:07:07;101703.44;;;9.17
18161;BMP280;9205;52.032;4.314;2022-12-07T12:09:49;101706.81;;;9.25
18161;BMP280;9205;52.032;4.314;2022-12-07T12:16:00;101694.13;;;9.28
18161;BMP280;9205;52.032;4.314;2022-12-07T12:32:17;101684.03;;;9.13
18161;BMP280;9205;52.032;4.314;2022-12-07T12:35:27;101683.13;;;9.18
18161;BMP280;9205;52.032;4.314;2022-12-07T12:38:33;101676.38;;;9.20
18161;BMP280;9205;52.032;4.314;2022-12-07T12:41:03;101679.78;;;9.16
18161;BMP280;9205;52.032;4.314;2022-12-07T12:43:56;101672.16;;;9.15
18161;BMP280;9205;52.032;4.314;2022-12-07T12:46:53;101677.22;;;9.15
18161;BMP280;9205;52.032;4.314;2022-12-07T12:49:54;101667.13;;;9.09
18161;BMP280;9205;52.032;4.314;2022-12-07T13:09:51;101656.19;;;8.72
18161;BMP280;9205;52.032;4.314;2022-12-07T13:12:59;101657.06;;;8.68
18161;BMP280;9205;52.032;4.314;2022-12-07T13:32:34;101619.06;;;8.62
18161;BMP280;9205;52.032;4.314;2022-12-07T13:35:34;101611.47;;;8.61
18161;BMP280;9205;52.032;4.314;2022-12-07T13:38:29;101616.53;;;8.62
18161;BMP280;9205;52.032;4.314;2022-12-07T13:41:35;101609.75;;;8.69
18161;BMP280;9205;52.032;4.314;2022-12-07T13:56:37;101603.84;;;8.79
18161;BMP280;9205;52.032;4.314;2022-12-07T13:59:31;101600.47;;;8.66
18161;BMP280;9205;52.032;4.314;2022-12-07T14:02:16;101595.41;;;8.62
18161;BMP280;9205;52.032;4.314;2022-12-07T14:05:15;101598.81;;;8.62
18161;BMP280;9205;52.032;4.314;2022-12-07T14:08:01;101603.03;;;8.65
18161;BMP280;9205;52.032;4.314;2022-12-07T14:14:25;101593.72;;;8.64
18161;BMP280;9205;52.032;4.314;2022-12-07T14:18:01;101582.75;;;8.65
18161;BMP280;9205;52.032;4.314;2022-12-07T14:24:28;101575.13;;;8.72
18161;BMP280;9205;52.032;4.314;2022-12-07T14:27:15;101570.06;;;8.75
18161;BMP280;9205;52.032;4.314;2022-12-07T14:29:45;101566.69;;;8.73
18161;BMP280;9205;52.032;4.314;2022-12-07T14:32:42;101582.72;;;8.68
18161;BMP280;9205;52.032;4.314;2022-12-07T14:35:17;101586.13;;;8.70
18161;BMP280;9205;52.032;4.314;2022-12-07T14:37:47;101576.88;;;8.53
18161;BMP280;9205;52.032;4.314;2022-12-07T14:40:19;101576.03;;;8.45
18161;BMP280;9205;52.032;4.314;2022-12-07T14:42:51;101563.38;;;8.39
18161;BMP280;9205;52.032;4.314;2022-12-07T14:45:23;101570.97;;;8.40
18161;BMP280;9205;52.032;4.314;2022-12-07T14:47:51;101565.09;;;8.40
18161;BMP280;9205;52.032;4.314;2022-12-07T14:50:21;101554.94;;;8.40
18161;BMP280;9205;52.032;4.314;2022-12-07T14:52:54;101558.31;;;8.39
18161;BMP280;9205;52.032;4.314;2022-12-07T14:55:26;101558.31;;;8.36
18161;BMP280;9205;52.032;4.314;2022-12-07T14:57:55;101554.94;;;8.40
18161;BMP280;9205;52.032;4.314;2022-12-07T15:00:32;101559.16;;;8.39
18161;BMP280;9205;52.032;4.314;2022-12-07T15:03:03;101551.56;;;8.35
18161;BMP280;9205;52.032;4.314;2022-12-07T15:05:40;101556.63;;;8.35
18161;BMP280;9205;52.032;4.314;2022-12-07T15:08:25;101547.34;;;8.34
18161;BMP280;9205;52.032;4.314;2022-12-07T15:11:04;101544.00;;;8.27
18161;BMP280;9205;52.032;4.314;2022-12-07T15:13:32;101543.16;;;8.28
18161;BMP280;9205;52.032;4.314;2022-12-07T15:16:21;101544.84;;;8.31
18161;BMP280;9205;52.032;4.314;2022-12-07T15:18:52;101541.44;;;8.30
18161;BMP280;9205;52.032;4.314;2022-12-07T15:21:28;101536.38;;;8.33
18161;BMP280;9205;52.032;4.314;2022-12-07T15:23:56;101546.53;;;8.32
18161;BMP280;9205;52.032;4.314;2022-12-07T15:26:30;101538.06;;;8.33
18161;BMP280;9205;52.032;4.314;2022-12-07T15:29:11;101536.38;;;8.26
18161;BMP280;9205;52.032;4.314;2022-12-07T15:31:50;101533.03;;;8.24
18161;BMP280;9205;52.032;4.314;2022-12-07T15:34:17;101526.25;;;8.21
18161;BMP280;9205;52.032;4.314;2022-12-07T15:36:45;101533.84;;;8.20
18161;BMP280;9205;52.032;4.314;2022-12-07T15:39:31;101536.38;;;8.20
18161;BMP280;9205;52.032;4.314;2022-12-07T15:49:13;101538.06;;;8.06
18161;BMP280;9205;52.032;4.314;2022-12-07T15:51:44;101536.38;;;7.97
18161;BMP280;9205;52.032;4.314;2022-12-07T15:54:19;101529.63;;;7.98
18161;BMP280;9205;52.032;4.314;2022-12-07T15:56:49;101521.19;;;7.99
18161;BMP280;9205;52.032;4.314;2022-12-07T15:59:20;101522.88;;;8.04
18161;BMP280;9205;52.032;4.314;2022-12-07T16:01:54;101520.34;;;8.03
18161;BMP280;9205;52.032;4.314;2022-12-07T16:04:46;101520.34;;;8.01
18161;BMP280;9205;52.032;4.314;2022-12-07T16:07:19;101522.03;;;8.04
18161;BMP280;9205;52.032;4.314;2022-12-07T16:09:53;101522.88;;;8.03
18161;BMP280;9205;52.032;4.314;2022-12-07T16:12:28;101536.38;;;8.00
18161;BMP280;9205;52.032;4.314;2022-12-07T16:15:10;101520.34;;;8.00
18161;BMP280;9205;52.032;4.314;2022-12-07T16:17:44;101516.97;;;7.99
18161;BMP280;9205;52.032;4.314;2022-12-07T16:20:25;101512.75;;;7.98
18161;BMP280;9205;52.032;4.314;2022-12-07T16:23:25;101505.16;;;8.01
18161;BMP280;9205;52.032;4.314;2022-12-07T16:26:27;101508.53;;;8.00
18161;BMP280;9205;52.032;4.314;2022-12-07T16:33:17;101506.88;;;7.96
18161;BMP280;9205;52.032;4.314;2022-12-07T16:36:41;101497.56;;;7.97